Connexion S'enregistrer

Connexion à votre compte

Identifiant
Mot de passe
Maintenir la connexion active sur ce site

Créer un compte

Pour valider ce formulaire, vous devez remplir tous les champs.
Nom
Identifiant
Mot de passe
Répétez le mot de passe
Adresse e-mail
Répétez l'adresse e-mail

URGENT! L'Aéroclub recherche de nouveaux instructeurs.

Prise de fonction immédiate.

 

L’Aéroclub de Savoie recherche FIAs qualifiés, bénévoles (préférés) ou auto-entrepreneurs, sans expérience prérequise, pour BB et PPL.

Qualif montagne et vol nuit bienvenues.

Souhait d’une implication pédagogique au-delà de l’acquisition d’expérience.

Bénévoles, défraiement maximum : 60km. 

Contacter le secrétariat ou envoyer candidature par mail.

Nous contacter

 Téléphone : +33 (0)4 79 54 41 81

Coordonnées détaillées et accès : cliquez ici

 
LFLB °C
    Ferienhaus Ostsee
[source: ADDS]
METAR
LFLB 200600Z AUTO VRB03KT 3800 BR FEW026 08/07 Q1025 NOSIG =
TAF LFLB 200500Z 2006/2106 36007KT 6000 NSC TEMPO 2006/2008 3000 BR PROB30 TEMPO 2104/2106 4000 BR
TAF
TAF LFLB 200500Z 2006/2106 36007KT 6000 NSC TEMPO 2006/2008 3000 BR PROB30 TEMPO 2104/2106 4000 BR =
SR / SS: 05:59 / 16:42 UTC (Lever/Coucher du soleil le 2018-10-20)
JSN Boot template designed by JoomlaShine.com